createdAt,value
2016-09-12T00:00:07.514Z,64.3
2016-09-12T00:10:07.499Z,64.8
2016-09-12T00:20:07.504Z,64.3
2016-09-12T00:30:08.143Z,64.3
2016-09-12T00:40:04.723Z,64.3
2016-09-12T00:50:14.269Z,64.3
2016-09-12T01:00:14.277Z,63.8
2016-09-12T01:10:10.870Z,63.8
2016-09-12T01:20:07.483Z,63.8
2016-09-12T01:30:07.491Z,63.8
2016-09-12T01:40:07.506Z,63.8
2016-09-12T01:50:07.501Z,63.8
2016-09-12T02:00:07.498Z,62.7
2016-09-12T02:10:07.501Z,63.8
2016-09-12T02:20:07.555Z,62.7
2016-09-12T02:30:07.643Z,63.8
2016-09-12T02:40:07.469Z,62.7
2016-09-12T02:50:07.467Z,62.7
2016-09-12T03:00:07.471Z,63.2
2016-09-12T03:10:02.984Z,63.8
2016-09-12T03:20:14.263Z,62.7
2016-09-12T03:30:14.265Z,62.1
2016-09-12T03:40:11.107Z,62.1
2016-09-12T03:50:04.881Z,62.1
2016-09-12T04:00:07.485Z,62.7
2016-09-12T04:10:14.304Z,62.7
2016-09-12T04:20:11.033Z,62.1
2016-09-12T04:30:07.471Z,62.7
2016-09-12T04:40:07.500Z,61.6
2016-09-12T04:50:07.486Z,62.1
2016-09-12T05:00:07.572Z,62.1
2016-09-12T05:10:07.507Z,62.1
2016-09-12T05:20:07.480Z,62.1
2016-09-12T05:30:07.509Z,61.6
2016-09-12T05:40:07.505Z,62.1
2016-09-12T05:50:07.514Z,61.6
2016-09-12T06:00:07.489Z,61.6
2016-09-12T06:10:07.492Z,61.6
2016-09-12T06:20:18.947Z,61.6
2016-09-12T06:30:07.476Z,62.1
2016-09-12T06:40:07.463Z,62.1
2016-09-12T07:01:30.800Z,62.7
2016-09-12T07:30:58.536Z,62.7
2016-09-12T12:40:07.503Z,73.4
2016-09-12T12:50:07.460Z,72.9
2016-09-12T13:00:07.477Z,72.9
2016-09-12T13:10:07.172Z,72.9
2016-09-12T13:20:14.278Z,72.9
2016-09-12T13:30:14.289Z,72.4
2016-09-12T13:40:12.638Z,72.4
2016-09-12T13:50:04.895Z,72.9
2016-09-12T14:00:14.258Z,72.9
2016-09-12T14:10:14.277Z,72.9
2016-09-12T14:20:07.480Z,72.9
2016-09-12T14:30:07.482Z,72.4
2016-09-12T14:40:07.474Z,72.9
2016-09-12T14:50:07.490Z,72.9
2016-09-12T15:00:07.448Z,72.9
2016-09-12T15:10:06.051Z,72.9
2016-09-12T15:20:14.306Z,72.9
2016-09-12T15:30:14.278Z,72.9
2016-09-12T15:40:14.256Z,73.4
2016-09-12T15:50:01.593Z,72.9
2016-09-12T16:00:14.262Z,73.4
2016-09-12T16:10:14.275Z,72.9
2016-09-12T16:20:14.280Z,72.9
2016-09-12T16:30:14.255Z,72.4
2016-09-12T16:40:14.266Z,71.8
2016-09-12T16:50:14.257Z,72.4
2016-09-12T17:00:14.318Z,71.8
2016-09-12T17:10:01.240Z,72.4
2016-09-12T17:20:07.465Z,71.8
2016-09-12T17:30:14.262Z,71.3
2016-09-12T17:40:11.590Z,71.3
2016-09-12T17:50:07.462Z,71.3
2016-09-12T18:00:07.478Z,71.3
2016-09-12T18:10:07.478Z,70.8
2016-09-12T18:20:07.477Z,70.8
2016-09-12T18:30:07.518Z,70.8
2016-09-12T18:40:07.463Z,70.8
2016-09-12T18:50:07.475Z,70.2
2016-09-12T19:00:07.478Z,70.2
2016-09-12T19:10:07.499Z,70.2
2016-09-12T19:20:07.519Z,70.2
2016-09-12T19:30:07.490Z,69.7
2016-09-12T19:40:07.484Z,69.1
2016-09-12T19:50:07.484Z,69.1
2016-09-12T20:00:07.542Z,68.1
2016-09-12T20:10:07.514Z,69.1
2016-09-12T20:20:04.171Z,69.1
2016-09-12T20:30:07.511Z,68.6
2016-09-12T20:40:14.274Z,68.6
2016-09-12T20:50:11.772Z,68.1
2016-09-12T21:00:07.487Z,68.1
2016-09-12T21:10:07.482Z,68.1
2016-09-12T21:20:07.471Z,68.1
2016-09-12T21:30:08.041Z,68.1
2016-09-12T21:40:07.463Z,67.5
2016-09-12T21:50:07.479Z,67
2016-09-12T22:00:07.506Z,67.5
2016-09-12T22:10:07.476Z,67
2016-09-12T22:20:07.477Z,67
2016-09-12T22:30:07.489Z,66.4
2016-09-12T22:40:07.456Z,66.4
2016-09-12T22:50:07.518Z,66.4
2016-09-12T23:00:07.499Z,65.9
2016-09-12T23:10:07.511Z,65.9
2016-09-12T23:20:07.480Z,65.9
2016-09-12T23:30:07.490Z,65.9
2016-09-12T23:40:07.497Z,65.9
2016-09-12T23:50:07.477Z,65.9
